Argonne, Minnesota
Current Conditions -  °F | °C
As of 4:48 PM on Thursday 23 Oct 2014 (Local Time) from KLVN Reporting Station
Clear Clear  
Wind Chill: 19°   Ceiling: Unl
Heat Index: 19°   Visibility: 10mi
Dew Point:   Wind: 6mph
Humidity: 43%   Direction: 270°W
Pressure: 29.95"   Gusts: NA
Location:  44.6349°N, 93.283°W
Report Text: KLVN 232148Z AUTO 27005KT 10SM CLR 19/06 A2995 RMK AO2
Loading
Personal Weather Stations






























Interactive Weather Map
Tropical Storm Tracking
New forecast layout! Learn more

10-Day Weather Forecast

Advertisements
Track Severe Weather on mobile